createdAt,value
2023-04-20T00:00:01.781Z,9.718856
2023-04-20T00:01:01.654Z,9.718801
2023-04-20T00:02:01.704Z,9.718794
2023-04-20T00:03:01.817Z,9.718904
2023-04-20T00:04:01.702Z,9.718900
2023-04-20T00:05:01.671Z,9.719009
2023-04-20T00:06:01.583Z,9.718974
2023-04-20T00:07:01.586Z,9.718857
2023-04-20T00:08:02.580Z,9.718809
2023-04-20T00:09:01.583Z,9.718801
2023-04-20T00:10:01.609Z,9.719070
2023-04-20T00:11:01.561Z,9.719129
2023-04-20T00:12:01.545Z,9.719068
2023-04-20T00:13:01.547Z,9.718890
2023-04-20T00:14:01.534Z,9.718916
2023-04-20T00:15:01.503Z,9.719173
2023-04-20T00:16:01.538Z,9.719287
2023-04-20T00:17:01.575Z,9.719168
2023-04-20T00:18:01.560Z,9.719180
2023-04-20T00:19:01.480Z,9.718828
2023-04-20T00:20:01.466Z,9.719176
2023-04-20T00:21:01.560Z,9.718891
2023-04-20T00:22:01.453Z,9.719067
2023-04-20T00:23:01.438Z,9.719313
2023-04-20T00:24:01.438Z,9.719114
2023-04-20T00:25:01.437Z,9.719426
2023-04-20T00:26:01.399Z,9.719018
2023-04-20T00:27:01.418Z,9.719274
2023-04-20T00:28:01.437Z,9.719592
2023-04-20T00:29:01.388Z,9.719028
2023-04-20T00:30:01.441Z,9.718893
2023-04-20T00:31:01.386Z,9.718554
2023-04-20T00:32:01.433Z,9.719016
2023-04-20T00:33:01.365Z,9.719234
2023-04-20T00:34:01.320Z,9.719133
2023-04-20T00:35:01.338Z,9.718576
2023-04-20T00:36:01.328Z,9.719104
2023-04-20T00:37:01.303Z,9.718918
2023-04-20T00:38:01.279Z,9.719126
2023-04-20T00:39:01.281Z,9.719070
2023-04-20T00:40:01.285Z,9.719086
2023-04-20T00:41:01.295Z,9.719070
2023-04-20T00:42:01.251Z,9.718993
2023-04-20T00:43:01.253Z,9.719249
2023-04-20T00:44:01.242Z,9.718949
2023-04-20T00:45:01.212Z,9.718869
2023-04-20T00:46:01.235Z,9.718506
2023-04-20T00:47:01.224Z,9.718924
2023-04-20T00:48:01.216Z,9.718668
2023-04-20T00:49:01.170Z,9.718825
2023-04-20T00:50:01.147Z,9.718970
2023-04-20T00:51:01.180Z,9.718985
2023-04-20T00:52:01.156Z,9.719294
2023-04-20T00:53:01.132Z,9.719213
2023-04-20T00:54:01.118Z,9.719262
2023-04-20T00:55:01.124Z,9.719035
2023-04-20T00:56:01.126Z,9.719596
2023-04-20T00:57:01.102Z,9.719303
2023-04-20T00:58:01.106Z,9.718936
2023-04-20T00:59:01.076Z,9.719273
2023-04-20T01:00:01.070Z,9.719625
2023-04-20T01:01:01.072Z,9.719624
2023-04-20T01:02:01.122Z,9.719763
2023-04-20T01:03:01.202Z,9.719616
2023-04-20T01:04:01.076Z,9.719598
2023-04-20T01:05:01.035Z,9.719836
2023-04-20T01:06:01.001Z,9.719424
2023-04-20T01:07:01.019Z,9.719404
2023-04-20T01:08:01.043Z,9.719316
2023-04-20T01:09:00.989Z,9.719369
2023-04-20T01:10:01.975Z,9.719225
2023-04-20T01:11:00.943Z,9.718945
2023-04-20T01:12:00.946Z,9.718970
2023-04-20T01:13:00.954Z,9.718966
2023-04-20T01:14:00.998Z,9.719181
2023-04-20T01:15:00.913Z,9.719150
2023-04-20T01:16:00.929Z,9.719108
2023-04-20T01:17:00.904Z,9.719114
2023-04-20T01:18:00.937Z,9.719248
2023-04-20T01:19:00.891Z,9.719426
2023-04-20T01:20:00.898Z,9.719668
2023-04-20T01:21:00.868Z,9.719462
2023-04-20T01:22:00.839Z,9.719113
2023-04-20T01:23:00.847Z,9.718956
2023-04-20T01:24:00.856Z,9.719102
2023-04-20T01:25:00.825Z,9.719359
2023-04-20T01:26:00.838Z,9.719385
2023-04-20T01:27:00.825Z,9.719288
2023-04-20T01:28:00.797Z,9.719120
2023-04-20T01:29:00.804Z,9.719081
2023-04-20T01:30:00.765Z,9.719154
2023-04-20T01:31:00.877Z,9.719190
2023-04-20T01:32:00.753Z,9.719157
2023-04-20T01:33:00.778Z,9.719172
2023-04-20T01:34:00.740Z,9.719109
2023-04-20T01:35:00.745Z,9.719167
2023-04-20T01:36:00.720Z,9.719207
2023-04-20T01:37:00.704Z,9.719176
2023-04-20T01:38:00.703Z,9.719141
2023-04-20T01:39:00.692Z,9.719159
2023-04-20T01:40:00.711Z,9.719172
2023-04-20T01:41:00.666Z,9.719169
2023-04-20T01:42:00.665Z,9.719171
2023-04-20T01:43:00.668Z,9.719185
2023-04-20T01:44:00.661Z,9.719175
2023-04-20T01:45:00.630Z,9.719186
2023-04-20T01:46:00.625Z,9.719105
2023-04-20T01:47:00.795Z,9.719195
2023-04-20T01:48:00.647Z,9.719214
2023-04-20T01:49:00.611Z,9.719219
2023-04-20T01:50:00.598Z,9.719202
2023-04-20T01:51:00.573Z,9.719130
2023-04-20T01:52:00.606Z,9.719075
2023-04-20T01:53:00.541Z,9.719289
2023-04-20T01:54:00.540Z,9.719285
2023-04-20T01:55:00.552Z,9.719296
2023-04-20T01:56:00.521Z,9.719422
2023-04-20T01:57:00.524Z,9.719359
2023-04-20T01:58:00.510Z,9.719254
2023-04-20T01:59:00.518Z,9.719185
2023-04-20T02:00:00.503Z,9.719104
2023-04-20T02:01:00.531Z,9.719134
2023-04-20T02:02:00.525Z,9.719256
2023-04-20T02:03:00.638Z,9.719275
2023-04-20T02:04:00.542Z,9.719173
2023-04-20T02:05:00.447Z,9.719320
2023-04-20T02:06:00.428Z,9.719440
2023-04-20T02:07:00.421Z,9.719450
2023-04-20T02:08:00.439Z,9.719186
2023-04-20T02:09:00.437Z,9.719161
2023-04-20T02:10:00.415Z,9.719139
2023-04-20T02:11:00.392Z,9.719281
2023-04-20T02:12:00.385Z,9.719440
2023-04-20T02:13:00.384Z,9.719328
2023-04-20T02:14:00.387Z,9.719427
2023-04-20T02:15:00.358Z,9.719383
2023-04-20T02:16:00.359Z,9.719400
2023-04-20T02:17:00.378Z,9.719373
2023-04-20T02:18:00.436Z,9.719464
2023-04-20T02:19:00.303Z,9.719275
2023-04-20T02:20:00.295Z,9.719287
2023-04-20T02:21:00.325Z,9.719413
2023-04-20T02:22:00.281Z,9.719247
2023-04-20T02:23:00.290Z,9.719303
2023-04-20T02:24:00.250Z,9.718959
2023-04-20T02:25:00.254Z,9.719007
2023-04-20T02:26:00.245Z,9.719159
2023-04-20T02:27:00.220Z,9.719098
2023-04-20T02:28:00.261Z,9.719044
2023-04-20T02:29:00.214Z,9.719210
2023-04-20T02:30:00.196Z,9.719221
2023-04-20T02:31:00.234Z,9.719200
2023-04-20T02:32:00.170Z,9.719095
2023-04-20T02:33:00.207Z,9.719098
2023-04-20T02:34:00.209Z,9.719167
2023-04-20T02:35:00.185Z,9.719144
2023-04-20T02:36:00.194Z,9.719015
2023-04-20T02:37:00.116Z,9.719047
2023-04-20T02:38:00.148Z,9.719185
2023-04-20T02:39:00.112Z,9.719266
2023-04-20T02:40:00.188Z,9.719348
2023-04-20T02:41:00.122Z,9.719274
2023-04-20T02:42:00.109Z,9.719213
2023-04-20T02:43:00.085Z,9.719222
2023-04-20T02:44:00.051Z,9.719262
2023-04-20T02:45:00.047Z,9.719253
2023-04-20T02:46:00.080Z,9.719235
2023-04-20T02:47:00.069Z,9.719260
2023-04-20T02:48:00.168Z,9.719353
2023-04-20T02:49:00.020Z,9.719297
2023-04-20T02:50:00.033Z,9.719241
2023-04-20T02:51:31.925Z,9.719194
2023-04-20T02:51:59.986Z,9.719254
2023-04-20T02:52:59.981Z,9.719280
2023-04-20T02:53:59.961Z,9.719400
2023-04-20T02:54:59.930Z,9.719338
2023-04-20T02:55:59.998Z,9.719161
2023-04-20T02:56:59.922Z,9.719211
2023-04-20T02:57:59.932Z,9.719230
2023-04-20T02:58:59.912Z,9.719221
2023-04-20T02:59:59.895Z,9.719204
2023-04-20T03:00:59.897Z,9.719162
2023-04-20T03:01:59.951Z,9.719177
2023-04-20T03:02:59.963Z,9.719197
2023-04-20T03:03:59.982Z,9.719134
2023-04-20T03:04:59.843Z,9.719038
2023-04-20T03:05:59.850Z,9.718844
2023-04-20T03:06:59.847Z,9.718726
2023-04-20T03:07:59.847Z,9.718789
2023-04-20T03:08:59.809Z,9.718852
2023-04-20T03:09:59.795Z,9.718935
2023-04-20T03:10:59.777Z,9.719150
2023-04-20T03:11:59.794Z,9.719152
2023-04-20T03:12:59.781Z,9.719179
2023-04-20T03:13:59.758Z,9.719105
2023-04-20T03:14:59.776Z,9.719113
2023-04-20T03:15:59.781Z,9.719094
2023-04-20T03:16:59.723Z,9.719147
2023-04-20T03:17:59.799Z,9.719141
2023-04-20T03:18:59.727Z,9.719115
2023-04-20T03:19:59.703Z,9.719082
2023-04-20T03:20:59.701Z,9.719152
2023-04-20T03:21:59.678Z,9.719174
2023-04-20T03:22:59.680Z,9.719077
2023-04-20T03:23:59.670Z,9.719174
2023-04-20T03:24:59.701Z,9.719115
2023-04-20T03:25:59.633Z,9.719212
2023-04-20T03:26:59.630Z,9.719150
2023-04-20T03:27:59.612Z,9.719416
2023-04-20T03:28:59.664Z,9.719033
2023-04-20T03:29:59.626Z,9.719105
2023-04-20T03:30:59.577Z,9.719106
2023-04-20T03:31:59.664Z,9.719020
2023-04-20T03:32:59.647Z,9.718976
2023-04-20T03:33:59.556Z,9.718937
2023-04-20T03:34:59.574Z,9.718882
2023-04-20T03:35:59.564Z,9.718821
2023-04-20T03:36:59.547Z,9.718773
2023-04-20T03:37:59.527Z,9.718861
2023-04-20T03:38:59.539Z,9.719216
2023-04-20T03:39:59.516Z,9.719150
2023-04-20T03:40:59.506Z,9.718912
2023-04-20T03:41:59.486Z,9.719065
2023-04-20T03:42:59.484Z,9.718891
2023-04-20T03:43:59.471Z,9.719113
2023-04-20T03:44:59.466Z,9.718911
2023-04-20T03:45:59.511Z,9.718768
2023-04-20T03:46:59.439Z,9.719091
2023-04-20T03:47:59.446Z,9.719002
2023-04-20T03:48:59.415Z,9.719143
2023-04-20T03:49:59.431Z,9.719110
2023-04-20T03:50:59.413Z,9.719111
2023-04-20T03:51:59.411Z,9.719234
2023-04-20T03:52:59.373Z,9.719236
2023-04-20T03:53:59.353Z,9.719173
2023-04-20T03:54:59.378Z,9.719083
2023-04-20T03:55:59.350Z,9.719200
2023-04-20T03:56:59.348Z,9.719137
2023-04-20T03:57:59.338Z,9.719035
2023-04-20T03:58:59.389Z,9.719036
2023-04-20T03:59:59.303Z,9.719071
2023-04-20T04:00:59.292Z,9.719010
2023-04-20T04:01:59.356Z,9.719170
2023-04-20T04:02:59.460Z,9.719054
2023-04-20T04:03:59.679Z,9.719154
2023-04-20T04:04:59.330Z,9.719016
2023-04-20T04:05:59.267Z,9.719073
2023-04-20T04:06:59.279Z,9.719037
2023-04-20T04:07:59.232Z,9.719207
2023-04-20T04:08:59.222Z,9.719097
2023-04-20T04:09:59.237Z,9.719118
2023-04-20T04:10:59.233Z,9.719146
2023-04-20T04:11:59.235Z,9.719162
2023-04-20T04:12:59.236Z,9.719138
2023-04-20T04:13:59.180Z,9.719033
2023-04-20T04:14:59.168Z,9.719158
2023-04-20T04:15:59.184Z,9.718940
2023-04-20T04:16:59.207Z,9.718995
2023-04-20T04:17:59.186Z,9.719074
2023-04-20T04:18:59.171Z,9.719142
2023-04-20T04:19:59.146Z,9.719083
2023-04-20T04:20:59.127Z,9.719069
2023-04-20T04:21:59.111Z,9.719169
2023-04-20T04:22:59.081Z,9.719041
2023-04-20T04:23:59.084Z,9.719179
2023-04-20T04:24:59.089Z,9.718928
2023-04-20T04:25:59.067Z,9.719183
2023-04-20T04:26:59.056Z,9.719125
2023-04-20T04:27:59.048Z,9.718999
2023-04-20T04:28:59.056Z,9.719223
2023-04-20T04:29:59.020Z,9.719196
2023-04-20T04:31:00.050Z,9.719205
2023-04-20T04:31:58.990Z,9.719104
2023-04-20T04:32:59.005Z,9.719058
2023-04-20T04:33:59.058Z,9.718984
2023-04-20T04:34:59.008Z,9.718986
2023-04-20T04:35:58.987Z,9.719129
2023-04-20T04:36:58.955Z,9.718944
2023-04-20T04:37:58.974Z,9.718777
2023-04-20T04:38:58.934Z,9.718752
2023-04-20T04:39:58.931Z,9.718754
2023-04-20T04:40:58.923Z,9.718822
2023-04-20T04:41:58.903Z,9.718634
2023-04-20T04:42:58.908Z,9.718734
2023-04-20T04:43:58.885Z,9.718955
2023-04-20T04:44:58.882Z,9.718858
2023-04-20T04:45:58.909Z,9.718912
2023-04-20T04:46:58.853Z,9.718836
2023-04-20T04:47:58.916Z,9.719108
2023-04-20T04:48:58.833Z,9.719151
2023-04-20T04:49:58.860Z,9.719009
2023-04-20T04:50:58.825Z,9.718950
2023-04-20T04:51:58.811Z,9.719084
2023-04-20T04:52:58.802Z,9.719034
2023-04-20T04:53:58.823Z,9.719185
2023-04-20T04:54:58.801Z,9.719073
2023-04-20T04:55:58.768Z,9.719165
2023-04-20T04:56:58.768Z,9.719054
2023-04-20T04:57:58.753Z,9.718866
2023-04-20T04:58:58.735Z,9.719213
2023-04-20T04:59:58.734Z,9.719213
2023-04-20T05:00:58.774Z,9.719084
2023-04-20T05:01:58.774Z,9.719026
2023-04-20T05:02:58.886Z,9.718722
2023-04-20T05:03:58.891Z,9.718696
2023-04-20T05:04:58.684Z,9.718921
2023-04-20T05:05:58.690Z,9.718605
2023-04-20T05:06:58.676Z,9.719156
2023-04-20T05:07:58.655Z,9.719271
2023-04-20T05:08:58.650Z,9.719311
2023-04-20T05:09:58.628Z,9.719153
2023-04-20T05:10:58.639Z,9.719173
2023-04-20T05:11:58.608Z,9.719131
2023-04-20T05:12:58.623Z,9.719101
2023-04-20T05:13:58.597Z,9.719122
2023-04-20T05:14:58.588Z,9.719189
2023-04-20T05:15:58.614Z,9.718954
2023-04-20T05:16:58.577Z,9.719106
2023-04-20T05:17:58.651Z,9.719145
2023-04-20T05:18:58.552Z,9.719132
2023-04-20T05:19:58.723Z,9.719210
2023-04-20T05:20:58.586Z,9.719123
2023-04-20T05:21:58.535Z,9.719169
2023-04-20T05:22:58.532Z,9.719194
2023-04-20T05:23:58.501Z,9.719209
2023-04-20T05:24:58.541Z,9.719184
2023-04-20T05:25:58.489Z,9.719072
2023-04-20T05:26:58.486Z,9.719076
2023-04-20T05:27:58.463Z,9.719126
2023-04-20T05:28:58.453Z,9.719142
2023-04-20T05:30:12.662Z,9.719189
2023-04-20T05:30:59.460Z,9.719091
2023-04-20T05:31:58.458Z,9.719165
2023-04-20T05:32:58.424Z,9.719196
2023-04-20T05:33:58.409Z,9.719161
2023-04-20T05:34:58.421Z,9.719007
2023-04-20T05:35:58.399Z,9.719041
2023-04-20T05:36:58.373Z,9.719113
2023-04-20T05:37:58.370Z,9.719158
2023-04-20T05:38:58.373Z,9.718987
2023-04-20T05:39:58.383Z,9.719007
2023-04-20T05:40:58.349Z,9.719175
2023-04-20T05:41:58.387Z,9.719213
2023-04-20T05:42:58.325Z,9.719151
2023-04-20T05:43:58.307Z,9.719202
2023-04-20T05:44:58.311Z,9.719151
2023-04-20T05:45:58.406Z,9.719030
2023-04-20T05:46:58.271Z,9.718972
2023-04-20T05:47:58.298Z,9.719273
2023-04-20T05:48:58.257Z,9.719206
2023-04-20T05:49:58.270Z,9.719032
2023-04-20T05:50:58.235Z,9.719077
2023-04-20T05:51:58.228Z,9.718965
2023-04-20T05:52:58.223Z,9.719012
2023-04-20T05:53:58.326Z,9.718956
2023-04-20T05:54:58.240Z,9.719152
2023-04-20T05:55:58.211Z,9.719185
2023-04-20T05:56:58.181Z,9.719116
2023-04-20T05:57:58.173Z,9.719196
2023-04-20T05:58:58.175Z,9.719170
2023-04-20T05:59:58.165Z,9.719191
2023-04-20T06:00:58.167Z,9.719177
2023-04-20T06:01:58.169Z,9.719235
2023-04-20T06:02:58.260Z,9.719245
2023-04-20T06:03:58.330Z,9.719132
2023-04-20T06:04:58.218Z,9.719065
2023-04-20T06:05:58.104Z,9.719138
2023-04-20T06:06:58.078Z,9.719180
2023-04-20T06:07:58.103Z,9.719334
2023-04-20T06:08:58.116Z,9.719271
2023-04-20T06:09:58.065Z,9.719210
2023-04-20T06:10:58.059Z,9.719222
2023-04-20T06:11:58.036Z,9.719178
2023-04-20T06:12:58.053Z,9.719208
2023-04-20T06:13:58.028Z,9.719249
2023-04-20T06:14:58.039Z,9.719270
2023-04-20T06:15:58.063Z,9.719287
2023-04-20T06:16:57.993Z,9.719232
2023-04-20T06:17:57.998Z,9.719271
2023-04-20T06:18:57.981Z,9.719178
2023-04-20T06:19:57.998Z,9.719131
2023-04-20T06:20:57.990Z,9.719131
2023-04-20T06:22:00.656Z,9.719270
2023-04-20T06:22:57.976Z,9.719216
2023-04-20T06:23:57.973Z,9.719247
2023-04-20T06:24:57.922Z,9.719308
2023-04-20T06:25:57.938Z,9.719232
2023-04-20T06:26:57.904Z,9.719256
2023-04-20T06:27:57.905Z,9.719134
2023-04-20T06:28:57.893Z,9.719194
2023-04-20T06:29:57.866Z,9.719235
2023-04-20T06:30:57.888Z,9.719157
2023-04-20T06:31:57.914Z,9.719126
2023-04-20T06:32:57.899Z,9.719080
2023-04-20T06:33:58.833Z,9.719205
2023-04-20T06:34:57.857Z,9.719204
2023-04-20T06:35:57.816Z,9.719166
2023-04-20T06:36:57.837Z,9.719227
2023-04-20T06:37:57.891Z,9.719145
2023-04-20T06:38:57.791Z,9.719196
2023-04-20T06:39:57.879Z,9.719187
2023-04-20T06:40:57.785Z,9.719071
2023-04-20T06:41:57.761Z,9.719121
2023-04-20T06:42:57.746Z,9.719144
2023-04-20T06:43:57.734Z,9.719181
2023-04-20T06:44:57.745Z,9.719111
2023-04-20T06:45:57.724Z,9.719137
2023-04-20T06:46:57.780Z,9.719070
2023-04-20T06:47:57.748Z,9.719144
2023-04-20T06:48:57.689Z,9.719487
2023-04-20T06:49:57.701Z,9.719315
2023-04-20T06:50:57.683Z,9.719267
2023-04-20T06:51:57.678Z,9.719218
2023-04-20T06:52:58.650Z,9.718999
2023-04-20T06:53:57.641Z,9.718953
2023-04-20T06:54:57.643Z,9.718994
2023-04-20T06:55:57.734Z,9.718971
2023-04-20T06:56:57.615Z,9.719152
2023-04-20T06:57:57.597Z,9.719044
2023-04-20T06:58:58.081Z,9.718894
2023-04-20T06:59:57.612Z,9.718926
2023-04-20T07:00:57.578Z,9.718998
2023-04-20T07:01:57.668Z,9.719091
2023-04-20T07:02:57.606Z,9.718962
2023-04-20T07:03:57.696Z,9.719055
2023-04-20T07:04:57.688Z,9.718936
2023-04-20T07:05:57.540Z,9.719150
2023-04-20T07:06:57.520Z,9.719109
2023-04-20T07:07:57.503Z,9.719105
2023-04-20T07:08:57.494Z,9.718977
2023-04-20T07:09:57.486Z,9.719002
2023-04-20T07:10:57.494Z,9.719058
2023-04-20T07:11:57.560Z,9.719102
2023-04-20T07:12:57.463Z,9.719132
2023-04-20T07:13:57.459Z,9.719074
2023-04-20T07:14:57.436Z,9.718999
2023-04-20T07:15:57.460Z,9.718957
2023-04-20T07:16:57.453Z,9.719043
2023-04-20T07:17:57.446Z,9.718992
2023-04-20T07:18:57.483Z,9.719069
2023-04-20T07:19:57.409Z,9.719102
2023-04-20T07:20:57.404Z,9.719016
2023-04-20T07:21:57.391Z,9.719049
2023-04-20T07:22:57.367Z,9.719183
2023-04-20T07:23:57.391Z,9.719127
2023-04-20T07:24:57.378Z,9.719250
2023-04-20T07:25:57.357Z,9.719206
2023-04-20T07:26:57.320Z,9.719196
2023-04-20T07:27:57.405Z,9.719199
2023-04-20T07:28:57.305Z,9.719280
2023-04-20T07:29:57.308Z,9.719192
2023-04-20T07:30:57.290Z,9.719154
2023-04-20T07:31:57.301Z,9.719113
2023-04-20T07:32:57.311Z,9.719203
2023-04-20T07:33:57.262Z,9.719249
2023-04-20T07:34:57.254Z,9.719224
2023-04-20T07:35:57.243Z,9.719220
2023-04-20T07:36:57.227Z,9.719200
2023-04-20T07:37:57.226Z,9.719231
2023-04-20T07:38:57.216Z,9.719181
2023-04-20T07:39:57.199Z,9.719175
2023-04-20T07:40:57.197Z,9.719192
2023-04-20T07:41:57.225Z,9.719255
2023-04-20T07:42:57.197Z,9.719276
2023-04-20T07:43:57.173Z,9.719283
2023-04-20T07:44:57.149Z,9.719274
2023-04-20T07:45:57.209Z,9.719206
2023-04-20T07:46:57.152Z,9.719077
2023-04-20T07:47:57.213Z,9.719037
2023-04-20T07:48:57.114Z,9.719085
2023-04-20T07:49:57.139Z,9.719110
2023-04-20T07:50:57.107Z,9.719053
2023-04-20T07:52:09.372Z,9.719071
2023-04-20T07:52:59.093Z,9.719064
2023-04-20T07:53:57.075Z,9.719119
2023-04-20T07:54:57.054Z,9.719125
2023-04-20T07:55:57.037Z,9.719216
2023-04-20T07:56:57.030Z,9.719138
2023-04-20T07:57:57.087Z,9.719182
2023-04-20T07:58:57.028Z,9.719162
2023-04-20T07:59:57.003Z,9.719128
2023-04-20T08:00:56.999Z,9.719184
2023-04-20T08:01:57.010Z,9.719154
2023-04-20T08:02:57.072Z,9.719140
2023-04-20T08:03:57.208Z,9.719062
2023-04-20T08:04:57.285Z,9.718934
2023-04-20T08:05:57.021Z,9.719135
2023-04-20T08:06:56.940Z,9.719127
2023-04-20T08:07:56.932Z,9.719013
2023-04-20T08:08:56.967Z,9.719011
2023-04-20T08:09:56.916Z,9.719199
2023-04-20T08:10:56.926Z,9.719179
2023-04-20T08:11:56.893Z,9.719221
2023-04-20T08:12:56.916Z,9.719252
2023-04-20T08:13:58.449Z,9.719171
2023-04-20T08:14:56.936Z,9.719194
2023-04-20T08:15:56.936Z,9.719215
2023-04-20T08:16:56.870Z,9.719186
2023-04-20T08:17:56.871Z,9.719156
2023-04-20T08:18:56.933Z,9.719371
2023-04-20T08:19:56.821Z,9.718912
2023-04-20T08:20:56.827Z,9.718917
2023-04-20T08:21:56.800Z,9.719137
2023-04-20T08:22:56.788Z,9.719049
2023-04-20T08:23:56.773Z,9.719068
2023-04-20T08:24:56.776Z,9.719022
2023-04-20T08:25:56.817Z,9.718918
2023-04-20T08:26:56.753Z,9.719191
2023-04-20T08:27:56.741Z,9.719100
2023-04-20T08:28:56.741Z,9.719081
2023-04-20T08:29:56.718Z,9.719344
2023-04-20T08:30:56.757Z,9.719692
2023-04-20T08:31:56.780Z,9.719399
2023-04-20T08:32:56.741Z,9.719583
2023-04-20T08:33:56.690Z,9.719163
2023-04-20T08:34:56.671Z,9.719024
2023-04-20T08:35:56.659Z,9.719366
2023-04-20T08:36:56.672Z,9.719107
2023-04-20T08:37:56.659Z,9.719065
2023-04-20T08:38:56.620Z,9.719099
2023-04-20T08:39:56.628Z,9.719133
2023-04-20T08:40:56.628Z,9.719072
2023-04-20T08:41:56.608Z,9.719110
2023-04-20T08:42:56.612Z,9.719139
2023-04-20T08:43:56.602Z,9.719237
2023-04-20T08:44:56.581Z,9.719103
2023-04-20T08:45:56.556Z,9.719151
2023-04-20T08:46:56.636Z,9.719234
2023-04-20T08:47:56.596Z,9.719180
2023-04-20T08:48:56.526Z,9.719200
2023-04-20T08:49:56.550Z,9.719166
2023-04-20T08:50:56.516Z,9.719099
2023-04-20T08:52:28.453Z,9.719108
2023-04-20T08:52:56.513Z,9.719074
2023-04-20T08:53:56.506Z,9.719021
2023-04-20T08:54:57.884Z,9.719086
2023-04-20T08:55:57.552Z,9.719144
2023-04-20T08:56:56.478Z,9.719048
2023-04-20T08:57:56.483Z,9.719012
2023-04-20T08:58:56.475Z,9.719093
2023-04-20T08:59:56.457Z,9.718995
2023-04-20T09:00:56.499Z,9.718976
2023-04-20T09:01:56.456Z,9.719064
2023-04-20T09:02:56.569Z,9.718983
2023-04-20T09:03:56.599Z,9.719050
2023-04-20T09:04:56.743Z,9.719119
2023-04-20T09:05:56.401Z,9.719026
2023-04-20T09:06:56.531Z,9.719050
2023-04-20T09:07:56.548Z,9.719116
2023-04-20T09:08:56.362Z,9.719063
2023-04-20T09:09:56.362Z,9.719162
2023-04-20T09:10:56.354Z,9.719180
2023-04-20T09:11:56.330Z,9.719164
2023-04-20T09:12:56.348Z,9.719216
2023-04-20T09:13:56.315Z,9.719232
2023-04-20T09:14:56.307Z,9.719146
2023-04-20T09:15:56.434Z,9.719186
2023-04-20T09:16:56.393Z,9.719182
2023-04-20T09:17:56.311Z,9.719183
2023-04-20T09:18:56.286Z,9.719047
2023-04-20T09:19:56.292Z,9.719042
2023-04-20T09:20:56.251Z,9.718985
2023-04-20T09:21:56.243Z,9.718972
2023-04-20T09:22:56.269Z,9.718887
2023-04-20T09:23:56.248Z,9.718896
2023-04-20T09:24:56.192Z,9.718965
2023-04-20T09:25:56.227Z,9.719016
2023-04-20T09:26:56.200Z,9.718995
2023-04-20T09:27:56.166Z,9.718985
2023-04-20T09:28:56.166Z,9.718902
2023-04-20T09:29:57.130Z,9.718847
2023-04-20T09:30:56.170Z,9.719046
2023-04-20T09:31:56.225Z,9.719165
2023-04-20T09:32:56.160Z,9.718986
2023-04-20T09:33:56.137Z,9.719026
2023-04-20T09:34:56.143Z,9.718932
2023-04-20T09:35:56.186Z,9.719045
2023-04-20T09:36:56.126Z,9.719022
2023-04-20T09:37:56.063Z,9.718953
2023-04-20T09:38:56.113Z,9.719020
2023-04-20T09:39:56.100Z,9.719107
2023-04-20T09:40:56.282Z,9.719090
2023-04-20T09:41:56.041Z,9.719122
2023-04-20T09:42:56.032Z,9.719302
2023-04-20T09:43:56.006Z,9.719482
2023-04-20T09:44:56.011Z,9.719127
2023-04-20T09:45:56.076Z,9.719017
2023-04-20T09:46:55.996Z,9.719140
2023-04-20T09:47:56.049Z,9.719045
2023-04-20T09:48:55.978Z,9.719145
2023-04-20T09:49:56.400Z,9.719155
2023-04-20T09:50:55.954Z,9.719028
2023-04-20T09:51:56.031Z,9.719383
2023-04-20T09:52:55.939Z,9.719210
2023-04-20T09:53:55.922Z,9.719191
2023-04-20T09:54:55.919Z,9.719160
2023-04-20T09:55:55.942Z,9.719146
2023-04-20T09:56:55.906Z,9.719140
2023-04-20T09:57:55.894Z,9.718935
2023-04-20T09:58:55.862Z,9.718987
2023-04-20T09:59:55.868Z,9.719028
2023-04-20T10:00:55.935Z,9.719058
2023-04-20T10:01:55.846Z,9.718984
2023-04-20T10:02:55.928Z,9.719236
2023-04-20T10:03:55.935Z,9.718761
2023-04-20T10:04:55.837Z,9.718760
2023-04-20T10:05:55.805Z,9.718841
2023-04-20T10:06:55.787Z,9.718717
2023-04-20T10:07:55.789Z,9.718722
2023-04-20T10:08:55.762Z,9.718760
2023-04-20T10:09:55.815Z,9.718796
2023-04-20T10:10:55.735Z,9.718877
2023-04-20T10:11:57.754Z,9.718900
2023-04-20T10:12:56.724Z,9.718909
2023-04-20T10:13:55.731Z,9.718772
2023-04-20T10:14:55.702Z,9.718909
2023-04-20T10:15:55.742Z,9.719055
2023-04-20T10:16:55.772Z,9.718993
2023-04-20T10:17:55.758Z,9.718989
2023-04-20T10:18:55.806Z,9.719029
2023-04-20T10:19:55.663Z,9.719024
2023-04-20T10:20:55.675Z,9.719047
2023-04-20T10:21:55.641Z,9.719150
2023-04-20T10:22:55.635Z,9.719111
2023-04-20T10:23:55.632Z,9.719176
2023-04-20T10:24:55.613Z,9.719183
2023-04-20T10:25:55.681Z,9.719233
2023-04-20T10:26:55.669Z,9.719208
2023-04-20T10:27:55.568Z,9.719194
2023-04-20T10:28:55.609Z,9.719188
2023-04-20T10:29:55.615Z,9.719215
2023-04-20T10:30:55.579Z,9.719193
2023-04-20T10:31:55.540Z,9.719248
2023-04-20T10:32:55.604Z,9.719167
2023-04-20T10:33:55.600Z,9.719155
2023-04-20T10:34:55.571Z,9.719205
2023-04-20T10:35:55.502Z,9.719273
2023-04-20T10:36:55.521Z,9.719250
2023-04-20T10:37:55.519Z,9.719254
2023-04-20T10:38:55.508Z,9.719195
2023-04-20T10:39:55.496Z,9.719275
2023-04-20T10:40:55.487Z,9.719311
2023-04-20T10:41:55.458Z,9.719265
2023-04-20T10:42:55.459Z,9.719236
2023-04-20T10:43:55.561Z,9.719225
2023-04-20T10:44:55.427Z,9.719206
2023-04-20T10:45:55.491Z,9.719287
2023-04-20T10:46:55.439Z,9.719225
2023-04-20T10:47:55.507Z,9.719291
2023-04-20T10:48:55.441Z,9.719158
2023-04-20T10:49:55.401Z,9.719217
2023-04-20T10:50:55.350Z,9.719192
2023-04-20T10:51:56.060Z,9.719336
2023-04-20T10:52:55.347Z,9.719298
2023-04-20T10:53:55.376Z,9.719275
2023-04-20T10:54:55.327Z,9.718953
2023-04-20T10:55:55.327Z,9.719031
2023-04-20T10:56:55.313Z,9.719142
2023-04-20T10:57:55.282Z,9.719026
2023-04-20T10:58:55.280Z,9.719102
2023-04-20T10:59:55.274Z,9.719097
2023-04-20T11:00:55.267Z,9.719218
2023-04-20T11:01:55.273Z,9.719173
2023-04-20T11:02:55.463Z,9.719250
2023-04-20T11:03:55.264Z,9.719129
2023-04-20T11:04:55.237Z,9.719195
2023-04-20T11:05:55.206Z,9.719193
2023-04-20T11:06:55.232Z,9.719155
2023-04-20T11:07:55.244Z,9.719057
2023-04-20T11:08:55.180Z,9.719163
2023-04-20T11:09:55.212Z,9.719204
2023-04-20T11:10:55.245Z,9.719234
2023-04-20T11:11:55.168Z,9.719140
2023-04-20T11:12:55.180Z,9.719160
2023-04-20T11:13:55.157Z,9.719133
2023-04-20T11:14:55.105Z,9.719204
2023-04-20T11:15:55.182Z,9.719126
2023-04-20T11:16:55.141Z,9.719160
2023-04-20T11:17:55.217Z,9.719040
2023-04-20T11:18:55.104Z,9.719192
2023-04-20T11:19:55.124Z,9.719225
2023-04-20T11:20:55.116Z,9.719089
2023-04-20T11:21:55.082Z,9.719129
2023-04-20T11:22:55.085Z,9.719117
2023-04-20T11:23:55.085Z,9.719198
2023-04-20T11:24:55.018Z,9.719203
2023-04-20T11:25:55.072Z,9.719130
2023-04-20T11:26:55.064Z,9.719149
2023-04-20T11:27:54.982Z,9.719273
2023-04-20T11:28:56.280Z,9.719267
2023-04-20T11:29:55.993Z,9.719344
2023-04-20T11:30:54.976Z,9.719502
2023-04-20T11:31:55.160Z,9.719468
2023-04-20T11:32:55.077Z,9.719231
2023-04-20T11:33:54.931Z,9.719358
2023-04-20T11:35:05.544Z,9.719343
2023-04-20T11:35:56.928Z,9.719344
2023-04-20T11:36:55.013Z,9.719573
2023-04-20T11:37:54.939Z,9.719461
2023-04-20T11:38:54.941Z,9.719324
2023-04-20T11:39:54.893Z,9.719310
2023-04-20T11:40:54.891Z,9.719346
2023-04-20T11:41:54.969Z,9.719226
2023-04-20T11:42:55.003Z,9.719174
2023-04-20T11:43:55.093Z,9.719297